Time;durP1;ratioP1;P1;durP2;ratioP2;P2;SDS_P1;SDS_P2;PMS_P1;PMS_P2;Temp;Humidity;BMP_temperature;BMP_pressure;BME280_temperature;BME280_humidity;BME280_pressure;Samples;Min_cycle;Max_cycle;Signal;HPM_P1;HPM_P2
2023/03/30 00:01:47;;;;;;;3.20;2.20;;;;;;;21.43;33.61;95539.66;6090245;28;109087;-67
2023/03/30 00:04:53;;;;;;;1.90;1.80;;;;;;;21.42;33.92;95540.75;6115501;23;110449;-62
2023/03/30 00:07:58;;;;;;;2.13;1.90;;;;;;;21.43;34.12;95538.88;6113806;28;109087;-61
2023/03/30 00:11:06;;;;;;;2.23;1.93;;;;;;;21.43;34.14;95537.00;6103949;28;109120;-62
2023/03/30 00:14:11;;;;;;;2.40;1.73;;;;;;;21.43;34.58;95529.00;6113867;28;109900;-62
2023/03/30 00:17:16;;;;;;;1.90;1.70;;;;;;;21.44;34.01;95521.81;6112954;28;109362;-62
2023/03/30 00:20:24;;;;;;;2.20;2.00;;;;;;;21.44;34.38;95521.81;6113813;28;110810;-62
2023/03/30 00:23:31;;;;;;;2.27;2.07;;;;;;;21.41;34.58;95509.88;6102151;28;109032;-62
2023/03/30 00:26:36;;;;;;;2.27;2.03;;;;;;;21.42;34.34;95526.66;6113221;28;109451;-61
2023/03/30 00:29:41;;;;;;;1.97;1.77;;;;;;;21.43;34.30;95523.69;6113011;28;108870;-61
2023/03/30 00:32:47;;;;;;;2.40;2.10;;;;;;;21.42;34.76;95524.78;6104556;28;109142;-62
2023/03/30 00:35:55;;;;;;;2.00;1.80;;;;;;;21.40;34.40;95524.28;6111578;28;109350;-62
2023/03/30 00:39:05;;;;;;;1.67;1.57;;;;;;;21.42;34.38;95524.78;6094755;28;109399;-62
2023/03/30 00:42:16;;;;;;;2.40;1.63;;;;;;;21.42;34.20;95516.78;6113013;28;109059;-62
2023/03/30 00:45:24;;;;;;;3.13;1.97;;;;;;;21.42;34.47;95516.78;6101546;28;109324;-62
2023/03/30 00:48:31;;;;;;;1.43;1.33;;;;;;;21.42;34.43;95516.00;6113095;28;109081;-62
2023/03/30 00:51:43;;;;;;;5.63;1.90;;;;;;;21.38;34.25;95525.66;6112472;28;109156;-62
2023/03/30 00:54:48;;;;;;;2.00;1.67;;;;;;;21.36;34.12;95528.59;6111303;28;109298;-64
2023/03/30 00:57:55;;;;;;;1.93;1.50;;;;;;;21.35;34.12;95524.34;6105001;28;109055;-62
2023/03/30 01:01:04;;;;;;;1.90;1.70;;;;;;;21.34;33.56;95524.63;6112523;28;108814;-62
2023/03/30 01:04:10;;;;;;;2.33;1.50;;;;;;;21.35;33.52;95540.34;6111642;28;110336;-62
2023/03/30 01:07:18;;;;;;;2.60;2.03;;;;;;;21.33;33.74;95526.50;6101683;28;109663;-62
2023/03/30 01:10:24;;;;;;;2.60;1.63;;;;;;;21.35;33.76;95531.56;6110506;28;109022;-62
2023/03/30 01:13:29;;;;;;;4.33;1.80;;;;;;;21.33;33.70;95521.16;6100519;28;109092;-62
2023/03/30 01:16:41;;;;;;;2.30;1.70;;;;;;;21.36;33.63;95528.59;6112687;28;109260;-62
2023/03/30 01:20:11;;;;;;;1.97;1.50;;;;;;;21.35;33.79;95526.22;6079536;28;109255;-62
2023/03/30 01:23:57;;;;;;;2.47;1.60;;;;;;;21.34;33.73;95522.78;6080936;28;109059;-62
2023/03/30 01:27:09;;;;;;;2.70;1.50;;;;;;;21.32;33.69;95522.25;6111253;28;109317;-62
2023/03/30 01:30:33;;;;;;;2.40;1.63;;;;;;;21.32;33.62;95532.91;6102377;28;109669;-62
2023/03/30 01:34:09;;;;;;;1.83;1.73;;;;;;;21.32;33.62;95537.44;6111700;28;109055;-62
2023/03/30 01:37:52;;;;;;;1.70;1.60;;;;;;;21.31;33.55;95531.31;6098733;28;109074;-62
2023/03/30 01:41:10;;;;;;;1.13;1.10;;;;;;;21.31;33.68;95549.94;6103511;28;109108;-65
2023/03/30 01:44:24;;;;;;;1.60;1.50;;;;;;;21.31;33.53;95526.00;6111627;28;109242;-62
2023/03/30 01:47:37;;;;;;;2.90;1.70;;;;;;;21.29;33.44;95522.84;6104044;28;109178;-62
2023/03/30 01:50:44;;;;;;;1.53;1.43;;;;;;;21.30;33.45;95529.72;6102638;28;109092;-62
2023/03/30 01:53:56;;;;;;;1.40;1.30;;;;;;;21.31;33.36;95530.53;6100708;28;109189;-62
2023/03/30 01:57:08;;;;;;;1.43;1.27;;;;;;;21.29;33.56;95525.50;6111998;28;109035;-62
2023/03/30 02:00:19;;;;;;;2.20;1.47;;;;;;;21.29;33.19;95527.38;6109710;28;109299;-62
2023/03/30 02:03:28;;;;;;;1.50;1.40;;;;;;;21.29;33.43;95540.66;6094190;28;109227;-62
2023/03/30 02:06:37;;;;;;;1.77;1.57;;;;;;;21.28;33.64;95531.09;6106065;28;109067;-62
2023/03/30 02:09:45;;;;;;;3.10;1.50;;;;;;;21.29;33.37;95549.44;6110487;28;108770;-62
2023/03/30 02:12:53;;;;;;;1.50;1.40;;;;;;;21.29;33.36;95548.66;6109720;28;109130;-62
2023/03/30 02:16:03;;;;;;;1.27;1.20;;;;;;;21.29;33.45;95543.34;6099994;28;109156;-62
2023/03/30 02:19:11;;;;;;;1.53;1.43;;;;;;;21.28;33.28;95537.22;6111051;28;109146;-62
2023/03/30 02:22:18;;;;;;;1.40;1.30;;;;;;;21.29;33.29;95541.47;6107713;28;109516;-61
2023/03/30 02:25:23;;;;;;;1.60;1.33;;;;;;;21.30;33.55;95550.25;6115151;28;109147;-62
2023/03/30 02:28:29;;;;;;;1.50;1.40;;;;;;;21.30;33.66;95544.91;6105362;28;109297;-62
2023/03/30 02:31:37;;;;;;;3.10;1.47;;;;;;;21.29;33.41;95549.44;6115680;28;109065;-62
2023/03/30 02:34:58;;;;;;;1.50;1.40;;;;;;;21.29;33.80;95549.44;6104550;28;109025;-62
2023/03/30 02:38:27;;;;;;;2.17;1.37;;;;;;;21.25;33.50;95545.78;6102426;28;109679;-64
2023/03/30 02:41:47;;;;;;;1.40;1.27;;;;;;;21.25;33.53;95547.66;6115519;28;109295;-62
2023/03/30 02:45:04;;;;;;;1.43;1.20;;;;;;;21.28;33.74;95553.19;6092250;28;110451;-61
2023/03/30 02:48:22;;;;;;;3.13;1.30;;;;;;;21.30;33.57;95559.00;6109158;28;109353;-61
2023/03/30 02:51:39;;;;;;;1.30;1.13;;;;;;;21.30;33.62;95555.56;6103751;28;109383;-62
2023/03/30 02:54:50;;;;;;;1.30;1.20;;;;;;;21.27;33.56;95556.94;6114226;28;109418;-62
2023/03/30 02:58:06;;;;;;;1.27;1.17;;;;;;;21.27;33.77;95561.47;6109375;28;109323;-62
2023/03/30 03:01:17;;;;;;;3.00;1.60;;;;;;;21.28;33.68;95574.47;6097037;28;109243;-62
2023/03/30 03:04:24;;;;;;;1.90;1.27;;;;;;;21.29;33.64;95564.63;6113804;28;109042;-62
2023/03/30 03:07:32;;;;;;;1.50;1.30;;;;;;;21.26;33.50;95558.00;6114590;28;109302;-62
2023/03/30 03:10:38;;;;;;;1.33;1.10;;;;;;;21.28;33.62;95566.50;6112697;28;109043;-62
2023/03/30 03:13:43;;;;;;;1.33;1.23;;;;;;;21.20;33.88;95557.31;6103276;28;109192;-62
2023/03/30 03:16:51;;;;;;;2.90;1.30;;;;;;;21.29;33.79;95569.94;6112858;28;108990;-62
2023/03/30 03:19:56;;;;;;;4.90;1.50;;;;;;;21.29;34.03;95567.28;6114117;28;109019;-62
2023/03/30 03:23:01;;;;;;;1.40;1.30;;;;;;;21.28;33.68;95569.16;6106350;28;109132;-64
2023/03/30 03:26:07;;;;;;;1.60;1.40;;;;;;;21.32;34.15;95570.16;6098249;28;109371;-61
2023/03/30 03:29:12;;;;;;;2.67;1.53;;;;;;;21.32;34.21;95572.81;6110205;28;111744;-64
2023/03/30 03:32:18;;;;;;;5.17;1.80;;;;;;;21.36;33.63;95573.84;6112869;28;109020;-62
2023/03/30 03:35:24;;;;;;;5.30;1.80;;;;;;;21.37;33.84;95572.78;6100071;28;109538;-61
2023/03/30 03:38:29;;;;;;;2.47;2.27;;;;;;;21.28;33.88;95569.16;6090694;28;109014;-62
2023/03/30 03:41:36;;;;;;;8.90;2.43;;;;;;;21.30;33.46;95572.31;6090628;28;108974;-62
2023/03/30 03:44:41;;;;;;;3.23;2.90;;;;;;;21.30;33.55;95572.31;6090970;28;109036;-62
2023/03/30 03:47:47;;;;;;;7.63;6.80;;;;;;;21.29;33.15;95592.03;6100444;28;108992;-61
2023/03/30 03:50:52;;;;;;;6.10;5.70;;;;;;;21.24;33.42;95580.69;6098007;28;109290;-61
2023/03/30 03:53:57;;;;;;;7.60;5.40;;;;;;;21.29;33.33;95592.03;6104509;28;109289;-62
2023/03/30 03:57:05;;;;;;;7.37;6.60;;;;;;;21.29;33.09;95596.56;6103912;28;108915;-61
2023/03/30 04:00:14;;;;;;;9.90;6.63;;;;;;;21.28;33.04;95595.78;6097406;28;108978;-62
2023/03/30 04:03:21;;;;;;;7.23;6.53;;;;;;;21.28;32.92;95600.31;6108419;28;109448;-61
2023/03/30 04:06:27;;;;;;;7.20;6.43;;;;;;;21.27;33.09;95604.84;6102249;28;109276;-63
2023/03/30 04:09:32;;;;;;;6.07;5.30;;;;;;;21.17;31.94;95592.47;6097858;28;109325;-65
2023/03/30 04:12:39;;;;;;;4.83;4.43;;;;;;;21.04;30.83;95595.00;6105213;28;109479;-63
2023/03/30 04:15:45;;;;;;;5.87;4.10;;;;;;;20.97;30.32;95597.22;6109060;28;109098;-62
2023/03/30 04:18:52;;;;;;;6.00;3.90;;;;;;;20.88;30.29;95589.88;6111071;28;109115;-62
2023/03/30 04:21:57;;;;;;;6.60;3.90;;;;;;;20.89;30.08;95594.13;6101648;28;109207;-61
2023/03/30 04:25:04;;;;;;;5.00;3.80;;;;;;;20.97;30.29;95581.25;6112275;28;109055;-67
2023/03/30 04:28:10;;;;;;;7.60;5.37;;;;;;;21.00;30.99;95593.97;6112634;28;111201;-66
2023/03/30 04:31:16;;;;;;;6.57;3.97;;;;;;;20.82;29.69;95591.00;6108780;28;109247;-67
2023/03/30 04:34:23;;;;;;;12.60;4.50;;;;;;;20.77;30.25;95603.56;6096248;28;109751;-69
2023/03/30 04:37:30;;;;;;;7.10;4.60;;;;;;;20.86;30.29;95594.69;6098276;28;109054;-70
2023/03/30 04:40:35;;;;;;;5.80;3.70;;;;;;;20.83;29.74;95595.22;6099263;28;109409;-70
2023/03/30 04:43:40;;;;;;;4.47;3.27;;;;;;;20.90;29.72;95600.22;6098841;28;109113;-69
2023/03/30 04:46:45;;;;;;;5.07;3.50;;;;;;;20.89;29.67;95606.63;6112469;28;109255;-69
2023/03/30 04:49:52;;;;;;;6.20;3.63;;;;;;;20.83;28.86;95599.75;6110014;28;109050;-65
2023/03/30 04:52:57;;;;;;;4.13;2.93;;;;;;;20.75;29.43;95603.06;6112901;28;109123;-69
2023/03/30 04:56:04;;;;;;;6.50;3.80;;;;;;;20.86;29.67;95605.31;6101536;28;109145;-69
2023/03/30 04:59:09;;;;;;;3.17;2.97;;;;;;;21.01;29.75;95607.03;6112965;28;108896;-69
2023/03/30 05:02:15;;;;;;;4.73;4.20;;;;;;;21.07;29.77;95605.91;6112873;28;109261;-69
2023/03/30 05:05:22;;;;;;;7.43;5.80;;;;;;;21.14;29.97;95618.84;6112295;28;109125;-69
2023/03/30 05:08:27;;;;;;;8.57;7.67;;;;;;;21.18;30.19;95617.22;6102387;28;110428;-69
2023/03/30 05:11:32;;;;;;;10.90;9.90;;;;;;;21.20;30.44;95612.41;6112996;28;108734;-70
2023/03/30 05:14:37;;;;;;;11.70;10.60;;;;;;;21.25;30.89;95612.34;6112997;28;109404;-69
2023/03/30 05:17:43;;;;;;;11.83;10.73;;;;;;;21.24;30.65;95613.41;6102851;28;109156;-69
2023/03/30 05:20:51;;;;;;;13.80;12.60;;;;;;;21.30;30.51;95619.44;6111688;28;109158;-70
2023/03/30 05:23:55;;;;;;;15.10;13.80;;;;;;;21.31;31.14;95613.03;6113003;28;109080;-71
2023/03/30 05:27:01;;;;;;;20.00;18.03;;;;;;;21.30;30.98;95630.09;6112720;28;109029;-71
2023/03/30 05:30:07;;;;;;;17.80;15.20;;;;;;;21.30;31.39;95617.59;6102085;28;109593;-70
2023/03/30 05:33:12;;;;;;;17.93;16.00;;;;;;;21.33;31.34;95621.53;6112672;28;109064;-71
2023/03/30 05:36:19;;;;;;;19.37;17.37;;;;;;;21.35;31.64;95622.84;6112193;28;109033;-71
2023/03/30 05:39:25;;;;;;;21.93;19.83;;;;;;;21.33;31.72;95614.34;6111745;28;109091;-71
2023/03/30 05:42:29;;;;;;;22.83;20.63;;;;;;;21.36;31.36;95608.47;6101923;28;110954;-72
2023/03/30 05:45:35;;;;;;;23.50;21.30;;;;;;;21.37;31.69;95612.72;6112134;28;109384;-69
2023/03/30 05:48:42;;;;;;;24.70;22.50;;;;;;;21.38;31.77;95621.50;6112424;28;109406;-68
2023/03/30 05:51:50;;;;;;;27.10;24.50;;;;;;;21.35;31.74;95628.19;6103980;28;108809;-69
2023/03/30 05:54:56;;;;;;;25.17;22.87;;;;;;;21.30;31.85;95625.56;6111491;28;109246;-69
2023/03/30 05:58:02;;;;;;;25.57;23.17;;;;;;;21.32;31.92;95633.25;6114278;28;109679;-68
2023/03/30 06:01:10;;;;;;;24.77;22.57;;;;;;;21.31;31.67;95629.81;6116521;28;109062;-69
2023/03/30 06:04:17;;;;;;;27.33;24.83;;;;;;;21.33;31.73;95640.16;6105024;28;109688;-68
2023/03/30 06:07:25;;;;;;;28.57;25.73;;;;;;;21.29;31.70;95639.94;6116367;28;109798;-68
2023/03/30 06:10:30;;;;;;;26.50;24.10;;;;;;;21.29;32.51;95647.94;6116253;28;109426;-68
2023/03/30 06:13:35;;;;;;;26.53;24.13;;;;;;;21.30;32.05;95646.84;6116082;28;108987;-68
2023/03/30 06:16:40;;;;;;;28.33;25.77;;;;;;;21.31;32.46;95655.63;6105543;28;110056;-68
2023/03/30 06:19:45;;;;;;;27.40;25.00;;;;;;;21.32;32.54;95655.34;6116075;28;109454;-68
2023/03/30 06:22:52;;;;;;;29.27;26.77;;;;;;;21.32;32.96;95660.69;6114931;28;108875;-68
2023/03/30 06:26:00;;;;;;;30.50;27.90;;;;;;;21.31;33.05;95659.09;6110403;28;109313;-68
2023/03/30 06:29:06;;;;;;;31.67;28.67;;;;;;;21.33;33.26;95666.78;6114936;28;108748;-68
2023/03/30 06:32:11;;;;;;;30.57;27.87;;;;;;;21.33;33.59;95667.59;6115149;28;108728;-68
2023/03/30 06:35:20;;;;;;;30.73;28.03;;;;;;;21.33;33.91;95667.59;6114852;28;109069;-68
2023/03/30 06:38:29;;;;;;;31.23;28.33;;;;;;;21.37;34.10;95668.63;6105296;28;108823;-62
2023/03/30 06:41:38;;;;;;;30.50;27.80;;;;;;;21.40;34.25;95667.25;6113380;28;109175;-62
2023/03/30 06:44:45;;;;;;;28.37;25.80;;;;;;;21.45;34.76;95670.63;6109756;28;109188;-62
2023/03/30 06:47:54;;;;;;;27.83;25.43;;;;;;;21.45;34.51;95669.84;6095812;28;108778;-64
2023/03/30 06:51:01;;;;;;;28.73;26.10;;;;;;;21.41;34.69;95663.50;6082404;28;109304;-60
2023/03/30 06:54:10;;;;;;;26.37;23.90;;;;;;;21.42;34.92;95668.53;6111055;28;109011;-60
2023/03/30 06:57:18;;;;;;;28.30;25.63;;;;;;;21.44;35.09;95671.72;6115008;28;109393;-61
2023/03/30 07:00:26;;;;;;;28.20;25.60;;;;;;;21.42;34.82;95673.88;6107709;28;109620;-62
2023/03/30 07:03:32;;;;;;;28.03;25.40;;;;;;;21.45;35.05;95678.63;6113887;28;109008;-61
2023/03/30 07:06:41;;;;;;;26.13;23.73;;;;;;;21.48;35.72;95683.38;6115235;28;109827;-61
2023/03/30 07:09:50;;;;;;;26.27;23.77;;;;;;;21.50;37.83;95681.22;6113982;28;109194;-60
2023/03/30 07:12:58;;;;;;;25.20;23.00;;;;;;;21.52;36.72;95679.09;6105913;28;109020;-65
2023/03/30 07:16:08;;;;;;;24.43;22.27;;;;;;;21.52;36.93;95689.72;6114619;28;109470;-63
2023/03/30 07:19:16;;;;;;;22.07;20.07;;;;;;;21.49;37.35;95686.81;6115115;28;109033;-64
2023/03/30 07:22:21;;;;;;;21.60;19.47;;;;;;;21.54;37.70;95688.66;6114042;28;109376;-65
2023/03/30 07:25:30;;;;;;;22.53;19.80;;;;;;;21.57;37.29;95688.06;6094440;28;110087;-63
2023/03/30 07:28:39;;;;;;;20.47;18.63;;;;;;;21.57;37.61;95680.09;6096657;28;109350;-65
2023/03/30 07:31:44;;;;;;;22.73;20.33;;;;;;;21.63;37.66;95684.25;6112958;28;109620;-66
2023/03/30 07:34:51;;;;;;;27.00;20.17;;;;;;;21.65;38.11;95695.41;6102417;28;109026;-63
2023/03/30 07:38:00;;;;;;;19.50;17.57;;;;;;;21.63;38.04;95695.69;6102316;28;110186;-66
2023/03/30 07:41:14;;;;;;;19.27;17.27;;;;;;;21.45;38.11;95675.97;6106126;28;109369;-67
2023/03/30 07:44:21;;;;;;;20.27;18.27;;;;;;;21.59;38.44;95696.56;6106166;28;110027;-69
2023/03/30 07:47:29;;;;;;;17.83;15.50;;;;;;;21.70;38.14;95685.50;6092448;28;109278;-69
2023/03/30 07:50:38;;;;;;;17.00;15.40;;;;;;;21.75;38.64;95680.09;6113357;28;109074;-66
2023/03/30 07:53:44;;;;;;;16.40;15.00;;;;;;;21.76;39.58;95679.00;6112252;28;109105;-64
2023/03/30 07:56:53;;;;;;;19.27;13.80;;;;;;;21.72;38.63;95686.00;6086384;28;109359;-68
2023/03/30 08:00:00;;;;;;;11.77;10.67;;;;;;;21.66;36.86;95687.13;6106206;28;109831;-67
2023/03/30 08:03:09;;;;;;;9.67;8.70;;;;;;;21.60;34.42;95684.84;6095726;28;109403;-65
2023/03/30 08:06:17;;;;;;;8.20;7.10;;;;;;;21.47;32.88;95678.34;6090155;28;109054;-66
2023/03/30 08:09:24;;;;;;;9.03;8.23;;;;;;;21.44;33.37;95678.91;6079117;28;109045;-67
2023/03/30 08:12:33;;;;;;;7.83;7.03;;;;;;;21.46;31.81;95688.19;6111425;28;109182;-66
2023/03/30 08:15:41;;;;;;;11.50;6.70;;;;;;;21.34;31.91;95679.03;6113506;28;109078;-66
2023/03/30 08:18:48;;;;;;;8.67;6.10;;;;;;;21.47;31.50;95676.47;6114071;28;109035;-67
2023/03/30 08:21:55;;;;;;;6.33;5.80;;;;;;;21.51;31.64;95680.16;6101842;28;111867;-66
2023/03/30 08:25:00;;;;;;;8.50;6.20;;;;;;;21.54;31.26;95680.66;6113835;28;109265;-67
2023/03/30 08:28:11;;;;;;;6.10;5.60;;;;;;;21.48;31.47;95655.94;6113422;28;109032;-67
2023/03/30 08:31:20;;;;;;;8.80;5.87;;;;;;;21.54;31.73;95667.34;6108669;28;109082;-67
2023/03/30 08:34:26;;;;;;;8.67;6.80;;;;;;;21.59;32.30;95669.94;6108416;28;108745;-67
2023/03/30 08:37:32;;;;;;;6.83;6.13;;;;;;;21.61;32.40;95667.78;6113249;28;109731;-67
2023/03/30 08:40:41;;;;;;;6.30;5.70;;;;;;;21.47;32.34;95639.19;6113457;28;109451;-66
2023/03/30 08:43:58;;;;;;;6.27;5.67;;;;;;;21.65;32.62;95658.13;6102514;28;109155;-66
2023/03/30 08:47:07;;;;;;;6.73;5.53;;;;;;;21.67;32.54;95662.06;6113284;28;108966;-67
2023/03/30 08:50:17;;;;;;;8.90;5.20;;;;;;;21.70;32.69;95661.53;6113860;28;112470;-67
2023/03/30 08:53:23;;;;;;;7.57;5.67;;;;;;;21.70;32.85;95650.09;6113103;28;109503;-67
2023/03/30 08:56:32;;;;;;;7.30;5.67;;;;;;;21.71;32.88;95664.97;6102463;28;109241;-68
2023/03/30 08:59:44;;;;;;;8.40;5.07;;;;;;;21.76;33.20;95654.25;6098863;28;110012;-69
2023/03/30 09:02:51;;;;;;;10.57;5.50;;;;;;;21.77;33.53;95656.63;6093312;28;108897;-66
2023/03/30 09:06:10;;;;;;;9.60;5.30;;;;;;;21.84;33.49;95658.94;6092218;28;108917;-66
2023/03/30 09:09:19;;;;;;;10.03;5.60;;;;;;;21.85;33.87;95639.25;6089149;28;108818;-62
2023/03/30 09:12:36;;;;;;;6.03;4.93;;;;;;;21.87;33.80;95633.63;6089796;28;109285;-66
2023/03/30 09:15:48;;;;;;;11.50;5.40;;;;;;;21.88;34.06;95624.53;6098044;28;109147;-64
2023/03/30 09:19:02;;;;;;;16.73;5.10;;;;;;;21.91;33.88;95627.41;6086143;28;109346;-64
2023/03/30 09:22:15;;;;;;;11.20;5.20;;;;;;;21.91;33.98;95629.28;6113133;28;109585;-65
2023/03/30 09:25:25;;;;;;;6.67;4.73;;;;;;;21.90;33.69;95617.03;6113460;28;109175;-65
2023/03/30 09:28:40;;;;;;;6.37;4.63;;;;;;;21.94;34.00;95616.16;6106228;28;109599;-65
2023/03/30 09:31:52;;;;;;;6.37;4.80;;;;;;;21.95;33.90;95615.09;6110011;28;109086;-65
2023/03/30 09:35:04;;;;;;;6.90;4.37;;;;;;;22.00;33.82;95617.66;6112163;28;108939;-64
2023/03/30 09:38:14;;;;;;;6.63;5.23;;;;;;;22.03;33.83;95598.44;6112482;28;109452;-63
2023/03/30 09:41:35;;;;;;;6.80;4.73;;;;;;;22.07;34.06;95601.31;6102206;28;109517;-63
2023/03/30 09:44:49;;;;;;;8.93;4.90;;;;;;;22.11;33.84;95603.09;6105798;28;109451;-63
2023/03/30 09:47:58;;;;;;;5.00;4.50;;;;;;;22.17;33.88;95601.13;6088582;28;109057;-65
2023/03/30 09:51:14;;;;;;;4.87;4.07;;;;;;;22.14;34.06;95600.94;6083304;28;111517;-63
2023/03/30 09:54:25;;;;;;;6.00;4.60;;;;;;;22.13;33.57;95584.16;6104647;28;110710;-63
2023/03/30 09:57:32;;;;;;;6.63;4.93;;;;;;;22.08;34.11;95586.91;6112163;28;110493;-63
2023/03/30 10:00:39;;;;;;;7.40;4.10;;;;;;;22.06;34.04;95589.88;6112287;28;109414;-63
2023/03/30 10:04:10;;;;;;;6.20;4.63;;;;;;;22.02;34.03;95580.88;6099673;28;110857;-63
2023/03/30 10:07:23;;;;;;;4.63;3.97;;;;;;;22.02;33.97;95582.75;6111944;28;109082;-63
2023/03/30 10:10:33;;;;;;;6.20;4.07;;;;;;;21.99;34.29;95578.78;6112083;28;110098;-62
2023/03/30 10:13:42;;;;;;;5.77;3.70;;;;;;;21.98;34.79;95563.88;6109613;28;109075;-62
2023/03/30 10:16:48;;;;;;;6.93;3.87;;;;;;;21.97;34.69;95564.16;6105415;28;109021;-63
2023/03/30 10:20:16;;;;;;;5.47;3.93;;;;;;;22.04;34.65;95572.59;6101625;28;109089;-63
2023/03/30 10:23:25;;;;;;;7.83;4.30;;;;;;;22.03;34.50;95582.47;6111613;28;109046;-62
2023/03/30 10:26:34;;;;;;;5.50;4.00;;;;;;;22.02;34.54;95561.44;6101463;28;110201;-63
2023/03/30 10:29:46;;;;;;;5.27;4.10;;;;;;;22.02;34.20;95566.75;6112214;28;110298;-64
2023/03/30 10:32:53;;;;;;;5.97;3.47;;;;;;;22.03;34.23;95552.34;6111768;28;109302;-61
2023/03/30 10:36:05;;;;;;;4.87;3.90;;;;;;;22.03;34.76;95553.16;6110934;28;109067;-61
2023/03/30 10:39:15;;;;;;;7.20;3.53;;;;;;;22.04;34.55;95545.94;6100818;28;108988;-61
2023/03/30 10:42:24;;;;;;;6.50;3.60;;;;;;;22.06;35.24;95546.44;6111082;28;109561;-60
2023/03/30 10:45:36;;;;;;;4.33;3.07;;;;;;;22.05;35.03;95545.66;6115837;28;110406;-60
2023/03/30 10:49:00;;;;;;;4.67;3.93;;;;;;;22.05;35.61;95545.66;6105805;28;109812;-62
2023/03/30 10:52:19;;;;;;;6.00;3.37;;;;;;;22.01;35.49;95531.34;6115607;28;109074;-61
2023/03/30 10:55:34;;;;;;;10.83;4.47;;;;;;;22.01;35.37;95536.66;6115825;28;109135;-61
2023/03/30 10:58:58;;;;;;;5.10;3.13;;;;;;;22.03;35.89;95545.16;6115797;28;108954;-61
2023/03/30 11:02:28;;;;;;;6.73;3.33;;;;;;;21.98;35.67;95534.56;6105109;28;110106;-61
2023/03/30 11:05:39;;;;;;;4.90;2.90;;;;;;;21.96;35.73;95526.06;6114727;28;111416;-62
2023/03/30 11:08:51;;;;;;;6.80;2.90;;;;;;;21.96;35.74;95515.41;6114506;28;109175;-62
2023/03/30 11:12:02;;;;;;;5.23;3.43;;;;;;;21.95;35.12;95527.16;6105037;28;109471;-62
2023/03/30 11:15:13;;;;;;;5.77;3.30;;;;;;;21.91;34.90;95512.84;6115516;28;109386;-67
2023/03/30 11:18:26;;;;;;;5.53;3.33;;;;;;;21.94;35.49;95517.56;6115101;28;108802;-66
2023/03/30 11:21:38;;;;;;;4.83;3.07;;;;;;;21.86;35.22;95499.63;6115054;28;109034;-69
2023/03/30 11:24:49;;;;;;;4.67;3.17;;;;;;;21.95;35.22;95511.16;6104171;28;109110;-68
2023/03/30 11:27:58;;;;;;;3.50;2.93;;;;;;;21.93;35.68;95510.66;6115034;28;109544;-68
2023/03/30 11:31:12;;;;;;;5.33;3.10;;;;;;;21.89;35.46;95495.56;6115239;28;109639;-67
2023/03/30 11:34:35;;;;;;;7.27;3.50;;;;;;;21.87;34.94;95489.75;6017987;28;108962;-68
2023/03/30 11:37:47;;;;;;;3.90;2.60;;;;;;;21.88;34.71;95486.78;6017170;29;109157;-71
2023/03/30 11:41:01;;;;;;;5.97;3.03;;;;;;;21.73;35.28;95455.03;6016924;29;109333;-67
2023/03/30 11:44:08;;;;;;;5.23;2.83;;;;;;;21.94;35.24;95480.28;6017228;29;108893;-67
2023/03/30 11:47:40;;;;;;;7.17;2.87;;;;;;;21.87;35.41;95469.22;6006446;28;109132;-66
2023/03/30 11:51:06;;;;;;;7.67;3.13;;;;;;;21.91;35.70;95462.22;6015507;29;112310;-67
2023/03/30 11:54:44;;;;;;;4.37;3.03;;;;;;;21.92;35.37;95460.34;6035013;28;112175;-66
2023/03/30 11:58:23;;;;;;;6.50;2.87;;;;;;;21.74;35.67;95436.09;6028602;28;110042;-66
2023/03/30 12:01:55;;;;;;;7.23;3.00;;;;;;;21.87;35.51;95457.78;6026207;28;109123;-67
2023/03/30 12:05:06;;;;;;;6.27;2.40;;;;;;;21.79;35.31;95430.69;6039729;28;109025;-70
2023/03/30 12:08:30;;;;;;;8.67;3.10;;;;;;;21.88;35.64;95436.16;6035368;28;109072;-66
2023/03/30 12:11:42;;;;;;;6.17;2.83;;;;;;;21.86;35.84;95418.91;6075388;28;109265;-66
2023/03/30 12:15:02;;;;;;;5.97;2.30;;;;;;;21.94;36.20;95432.31;6113129;28;109029;-65
2023/03/30 12:18:20;;;;;;;5.90;3.33;;;;;;;21.84;35.95;95413.84;6114220;28;109094;-64
2023/03/30 12:21:35;;;;;;;8.70;2.73;;;;;;;21.99;37.48;95423.41;6103167;28;109068;-64
2023/03/30 12:24:49;;;;;;;11.43;3.20;;;;;;;21.95;36.96;95417.91;6113528;28;109054;-63
2023/03/30 12:28:04;;;;;;;6.37;2.70;;;;;;;21.49;37.29;95341.47;6112649;28;109239;-64
2023/03/30 12:31:13;;;;;;;7.97;2.73;;;;;;;21.99;36.99;95408.22;6105947;28;109146;-63
2023/03/30 12:34:23;;;;;;;6.60;2.70;;;;;;;22.02;36.52;95402.31;6112106;28;110700;-62
2023/03/30 12:37:37;;;;;;;4.40;2.27;;;;;;;22.03;36.15;95397.78;6110909;28;109274;-62
2023/03/30 12:40:48;;;;;;;9.03;2.97;;;;;;;22.04;36.79;95402.81;6110957;28;109082;-61
2023/03/30 12:44:09;;;;;;;5.13;2.70;;;;;;;21.88;36.71;95382.09;6100784;28;109155;-64
2023/03/30 12:47:37;;;;;;;5.07;2.27;;;;;;;21.91;36.73;95384.94;6110360;28;109419;-63
2023/03/30 12:50:55;;;;;;;10.53;2.57;;;;;;;21.94;36.42;95378.22;6107026;28;109147;-64
2023/03/30 12:54:31;;;;;;;8.80;3.00;;;;;;;22.00;37.38;95377.03;6106691;28;109115;-64
2023/03/30 12:57:54;;;;;;;8.97;2.77;;;;;;;21.80;37.74;95340.91;6113521;28;110440;-64
2023/03/30 13:01:12;;;;;;;9.17;3.07;;;;;;;21.93;37.82;95366.78;6113361;28;110215;-65
2023/03/30 13:04:25;;;;;;;5.77;2.73;;;;;;;21.98;37.68;95368.56;6112598;28;108973;-65
2023/03/30 13:07:35;;;;;;;6.67;2.20;;;;;;;21.97;37.72;95357.09;6102285;28;111938;-64
2023/03/30 13:10:43;;;;;;;5.30;2.30;;;;;;;21.95;37.23;95361.94;6113344;28;109170;-64
2023/03/30 13:13:58;;;;;;;5.70;2.03;;;;;;;21.70;37.41;95312.59;6112889;28;109230;-64
2023/03/30 13:17:15;;;;;;;9.30;2.40;;;;;;;21.95;37.39;95337.97;6104091;28;110434;-64
2023/03/30 13:20:30;;;;;;;9.47;2.90;;;;;;;21.96;38.10;95328.88;6110987;28;109791;-69
2023/03/30 13:23:38;;;;;;;4.23;2.10;;;;;;;22.00;37.34;95324.53;6112818;28;109283;-69
2023/03/30 13:26:47;;;;;;;9.70;2.63;;;;;;;21.98;37.83;95329.38;6112736;28;111565;-69
2023/03/30 13:29:59;;;;;;;4.27;2.20;;;;;;;21.88;37.48;95310.16;6101191;28;109426;-68
2023/03/30 13:33:12;;;;;;;6.17;2.20;;;;;;;21.96;37.67;95309.44;6112513;28;108904;-68
2023/03/30 13:36:26;;;;;;;14.70;3.07;;;;;;;21.98;37.32;95313.38;6109804;28;109253;-69
2023/03/30 13:39:39;;;;;;;4.70;2.30;;;;;;;21.97;37.66;95297.69;6106622;28;110614;-70
2023/03/30 13:42:55;;;;;;;7.27;2.37;;;;;;;21.91;37.23;95289.03;6111140;28;109264;-68
2023/03/30 13:46:05;;;;;;;7.37;2.40;;;;;;;21.93;38.51;95286.84;6112312;28;109035;-69
2023/03/30 13:49:37;;;;;;;3.57;2.00;;;;;;;21.85;38.38;95274.25;6111370;28;109369;-69
2023/03/30 13:52:49;;;;;;;5.90;2.50;;;;;;;21.98;38.63;95294.72;6097945;28;109142;-69
2023/03/30 13:55:57;;;;;;;10.40;2.63;;;;;;;22.05;37.74;95286.34;6112425;28;109603;-69
2023/03/30 13:59:07;;;;;;;3.73;2.30;;;;;;;22.03;37.67;95283.19;6112033;28;109966;-71
2023/03/30 14:02:16;;;;;;;6.10;2.13;;;;;;;21.76;37.29;95254.69;6107030;28;109546;-69
2023/03/30 14:05:25;;;;;;;3.63;2.00;;;;;;;21.96;36.62;95278.25;6106273;28;109035;-70
2023/03/30 14:08:37;;;;;;;3.30;1.73;;;;;;;22.01;36.75;95280.84;6112625;28;111763;-69
2023/03/30 14:11:46;;;;;;;4.70;1.90;;;;;;;22.04;36.71;95269.56;6111995;28;109147;-69
2023/03/30 14:14:52;;;;;;;6.10;2.17;;;;;;;22.08;37.15;95277.75;6102116;28;109232;-70
2023/03/30 14:18:01;;;;;;;5.77;1.90;;;;;;;22.09;37.43;95274.78;6112830;28;109410;-70
2023/03/30 14:21:16;;;;;;;3.97;1.90;;;;;;;22.03;37.58;95265.34;6116499;28;109622;-69
2023/03/30 14:24:32;;;;;;;4.90;2.23;;;;;;;22.04;37.58;95268.78;6115592;28;113515;-70
2023/03/30 14:27:40;;;;;;;4.87;1.70;;;;;;;22.08;37.34;95269.75;6106387;28;109487;-69
2023/03/30 14:30:52;;;;;;;5.13;2.10;;;;;;;22.08;37.04;95272.41;6115984;28;110248;-69
2023/03/30 14:34:00;;;;;;;3.53;1.80;;;;;;;22.08;37.10;95273.22;6116083;28;109180;-69
2023/03/30 14:37:09;;;;;;;4.90;1.70;;;;;;;22.06;37.62;95264.72;6105774;28;109872;-69
2023/03/30 14:40:25;;;;;;;3.20;1.70;;;;;;;21.89;37.50;95232.59;6115872;28;112839;-69
2023/03/30 14:43:33;;;;;;;8.60;1.63;;;;;;;22.04;37.90;95250.91;6115500;28;109111;-68